createdAt,value
2019-04-25T00:02:27.727Z,99.90
2019-04-25T00:04:56.719Z,99.90
2019-04-25T00:07:25.926Z,99.90
2019-04-25T00:09:55.727Z,99.90
2019-04-25T00:12:25.108Z,99.90
2019-04-25T00:14:54.529Z,99.90
2019-04-25T00:17:24.865Z,99.90
2019-04-25T00:19:54.053Z,99.90
2019-04-25T00:22:24.584Z,99.90
2019-04-25T00:24:55.316Z,99.90
2019-04-25T00:27:25.234Z,99.90
2019-04-25T00:29:54.377Z,99.90
2019-04-25T00:32:24.034Z,99.90
2019-04-25T00:34:53.130Z,99.90
2019-04-25T00:37:22.634Z,99.90
2019-04-25T00:39:51.824Z,99.90
2019-04-25T00:42:21.231Z,99.90
2019-04-25T00:44:51.537Z,99.90
2019-04-25T00:47:21.615Z,99.90
2019-04-25T00:49:52.109Z,99.90
2019-04-25T00:52:22.916Z,99.90
2019-04-25T00:55:28.500Z,99.90
2019-04-25T00:57:55.510Z,99.90
2019-04-25T01:00:29.336Z,99.90
2019-04-25T01:03:01.621Z,99.90
2019-04-25T01:05:31.635Z,99.90
2019-04-25T01:08:02.150Z,99.90
2019-04-25T01:10:32.268Z,99.90
2019-04-25T01:13:03.055Z,99.90
2019-04-25T01:15:32.304Z,99.90
2019-04-25T01:18:01.398Z,99.90
2019-04-25T01:20:31.313Z,99.90
2019-04-25T01:23:01.533Z,99.90
2019-04-25T01:25:40.683Z,99.90
2019-04-25T01:28:01.265Z,99.90
2019-04-25T01:30:30.676Z,99.90
2019-04-25T01:32:59.860Z,99.90
2019-04-25T01:35:33.470Z,99.90
2019-04-25T01:38:09.926Z,99.90
2019-04-25T01:40:55.679Z,99.90
2019-04-25T01:43:41.310Z,99.90
2019-04-25T01:46:11.379Z,99.90
2019-04-25T01:48:40.614Z,99.90
2019-04-25T01:51:10.419Z,99.90
2019-04-25T01:53:40.024Z,99.90
2019-04-25T01:56:09.019Z,99.90
2019-04-25T01:58:38.318Z,99.90
2019-04-25T02:01:07.617Z,99.90
2019-04-25T02:03:36.772Z,99.90
2019-04-25T02:06:06.320Z,99.90
2019-04-25T02:08:35.313Z,99.90
2019-04-25T02:11:09.075Z,99.90
2019-04-25T02:13:39.439Z,99.90
2019-04-25T02:16:09.248Z,99.90
2019-04-25T02:18:38.245Z,99.90
2019-04-25T02:21:07.951Z,99.90
2019-04-25T02:23:37.253Z,99.90
2019-04-25T02:26:15.681Z,99.90
2019-04-25T02:28:38.107Z,99.90
2019-04-25T02:31:08.788Z,99.90
2019-04-25T02:33:38.957Z,99.90
2019-04-25T02:36:09.050Z,99.90
2019-04-25T02:38:38.173Z,99.90
2019-04-25T02:41:09.071Z,99.90
2019-04-25T02:43:38.001Z,99.90
2019-04-25T02:46:21.227Z,99.90
2019-04-25T02:48:56.184Z,99.90
2019-04-25T02:51:29.657Z,99.90
2019-04-25T02:53:59.669Z,99.90
2019-04-25T02:56:34.286Z,99.90
2019-04-25T02:59:00.166Z,99.90
2019-04-25T03:01:29.517Z,99.90
2019-04-25T03:03:59.354Z,99.90
2019-04-25T03:06:29.001Z,99.90
2019-04-25T03:09:07.416Z,99.90
2019-04-25T03:11:37.595Z,99.90
2019-04-25T03:14:09.485Z,99.90
2019-04-25T03:16:37.600Z,99.90
2019-04-25T03:19:17.145Z,99.90
2019-04-25T03:21:50.539Z,99.90
2019-04-25T03:24:19.426Z,99.90
2019-04-25T03:26:48.729Z,99.90
2019-04-25T03:29:19.662Z,99.90
2019-04-25T03:31:48.653Z,99.90
2019-04-25T03:34:20.666Z,99.90
2019-04-25T03:36:49.313Z,99.90
2019-04-25T03:39:18.500Z,99.90
2019-04-25T03:41:47.594Z,99.90
2019-04-25T03:44:17.107Z,99.90
2019-04-25T03:46:46.810Z,99.90
2019-04-25T03:49:15.697Z,99.90
2019-04-25T03:51:44.689Z,99.90
2019-04-25T03:54:14.284Z,99.90
2019-04-25T03:56:53.291Z,99.90
2019-04-25T03:59:16.118Z,99.90
2019-04-25T04:01:45.472Z,99.90
2019-04-25T04:04:16.291Z,99.90
2019-04-25T04:06:45.713Z,99.90
2019-04-25T04:09:15.232Z,99.90
2019-04-25T04:11:44.719Z,99.90
2019-04-25T04:14:14.805Z,99.90
2019-04-25T04:17:05.117Z,99.90
2019-04-25T04:20:03.981Z,99.90
2019-04-25T04:22:50.224Z,99.90
2019-04-25T04:25:20.848Z,99.90
2019-04-25T04:27:50.149Z,99.90
2019-04-25T04:30:19.242Z,99.90
2019-04-25T04:32:48.543Z,99.90
2019-04-25T04:35:17.665Z,99.90
2019-04-25T04:37:46.641Z,99.90
2019-04-25T04:40:17.626Z,99.90
2019-04-25T04:42:47.787Z,99.90
2019-04-25T04:45:16.887Z,99.90
2019-04-25T04:47:46.292Z,99.90
2019-04-25T04:50:15.483Z,99.90
2019-04-25T04:52:44.577Z,99.90
2019-04-25T04:55:16.073Z,99.90
2019-04-25T04:57:44.866Z,99.90
2019-04-25T05:00:15.558Z,99.90
2019-04-25T05:02:46.690Z,99.90
2019-04-25T05:05:34.396Z,99.90
2019-04-25T05:08:07.822Z,99.90
2019-04-25T05:10:36.914Z,99.90
2019-04-25T05:13:06.931Z,99.90
2019-04-25T05:15:36.025Z,99.90
2019-04-25T05:18:05.225Z,99.90
2019-04-25T05:20:35.899Z,99.90
2019-04-25T05:23:08.818Z,99.90
2019-04-25T05:25:38.014Z,99.90
2019-04-25T05:28:08.154Z,99.90
2019-04-25T05:30:43.628Z,99.90
2019-04-25T05:33:14.700Z,99.90
2019-04-25T05:35:45.196Z,99.90
2019-04-25T05:38:15.431Z,99.90
2019-04-25T05:40:57.126Z,99.90
2019-04-25T05:43:28.150Z,99.90
2019-04-25T05:45:58.813Z,99.90
2019-04-25T05:48:28.357Z,99.90
2019-04-25T05:50:58.782Z,99.90
2019-04-25T05:53:29.412Z,99.90
2019-04-25T05:55:58.837Z,99.90
2019-04-25T05:58:28.392Z,99.90
2019-04-25T06:00:58.263Z,99.90
2019-04-25T06:03:28.551Z,99.90
2019-04-25T06:05:58.917Z,99.90
2019-04-25T06:08:29.874Z,99.90
2019-04-25T06:11:04.059Z,99.90
2019-04-25T06:13:43.382Z,99.90
2019-04-25T06:16:15.565Z,99.90
2019-04-25T06:18:46.931Z,99.90
2019-04-25T06:21:17.167Z,99.90
2019-04-25T06:23:50.108Z,99.90
2019-04-25T06:26:32.745Z,99.90
2019-04-25T06:28:57.102Z,99.90
2019-04-25T06:31:21.780Z,99.90
2019-04-25T06:33:51.238Z,99.90
2019-04-25T06:36:21.094Z,99.90
2019-04-25T06:38:50.910Z,99.90
2019-04-25T06:41:19.903Z,99.90
2019-04-25T06:43:50.844Z,99.90
2019-04-25T06:46:22.419Z,99.90
2019-04-25T06:49:03.490Z,99.90
2019-04-25T06:51:51.897Z,99.90
2019-04-25T06:54:21.997Z,99.90
2019-04-25T06:56:53.566Z,99.90
2019-04-25T06:59:24.945Z,99.90
2019-04-25T07:01:54.068Z,99.90
2019-04-25T07:04:26.185Z,99.90
2019-04-25T07:06:55.087Z,99.90
2019-04-25T07:09:26.859Z,99.90
2019-04-25T07:11:54.708Z,99.90
2019-04-25T07:14:25.842Z,99.90
2019-04-25T07:16:54.745Z,99.90
2019-04-25T07:19:25.949Z,99.90
2019-04-25T07:21:55.568Z,99.90
2019-04-25T07:24:25.931Z,99.90
2019-04-25T07:26:57.674Z,99.90
2019-04-25T07:29:37.729Z,99.90
2019-04-25T07:32:11.635Z,99.90
2019-04-25T07:34:40.936Z,99.90
2019-04-25T07:37:10.232Z,99.90
2019-04-25T07:39:39.737Z,99.90
2019-04-25T07:42:08.833Z,99.90
2019-04-25T07:44:49.284Z,99.90
2019-04-25T07:47:08.465Z,99.90
2019-04-25T07:49:37.910Z,99.90
2019-04-25T07:52:06.947Z,99.90
2019-04-25T07:54:37.175Z,99.90
2019-04-25T07:57:06.679Z,99.90
2019-04-25T07:59:36.368Z,99.90
2019-04-25T08:02:06.354Z,99.90
2019-04-25T08:04:36.971Z,99.90
2019-04-25T08:07:06.131Z,99.90
2019-04-25T08:09:35.767Z,99.90
2019-04-25T08:12:06.368Z,99.90
2019-04-25T08:14:37.413Z,99.90
2019-04-25T08:17:08.045Z,99.90
2019-04-25T08:19:37.502Z,99.90
2019-04-25T08:22:06.843Z,99.90
2019-04-25T08:24:37.312Z,99.90
2019-04-25T08:27:06.672Z,99.90
2019-04-25T08:29:39.137Z,99.90
2019-04-25T08:32:07.116Z,99.90
2019-04-25T08:34:37.224Z,99.90
2019-04-25T08:37:17.520Z,99.90
2019-04-25T08:39:38.360Z,99.90
2019-04-25T08:42:08.308Z,99.90
2019-04-25T08:44:37.604Z,99.90
2019-04-25T08:47:06.717Z,99.90
2019-04-25T08:49:38.660Z,99.90
2019-04-25T08:52:07.782Z,99.90
2019-04-25T08:54:47.699Z,99.50
2019-04-25T08:57:19.246Z,99.90
2019-04-25T08:59:53.035Z,99.20
2019-04-25T09:02:23.710Z,97.10
2019-04-25T09:05:14.487Z,96.20
2019-04-25T09:07:44.460Z,97.20
2019-04-25T09:10:15.189Z,96.30
2019-04-25T09:12:45.392Z,97.30
2019-04-25T09:15:15.199Z,96.10
2019-04-25T09:17:46.974Z,95.20
2019-04-25T09:20:15.707Z,96.90
2019-04-25T09:22:45.569Z,96.50
2019-04-25T09:25:15.464Z,96.80
2019-04-25T09:27:45.809Z,96.50
2019-04-25T09:30:15.604Z,96.80
2019-04-25T09:32:45.777Z,97.10
2019-04-25T09:35:15.319Z,96.80
2019-04-25T09:37:46.128Z,96.20
2019-04-25T09:40:16.779Z,95.60
2019-04-25T09:42:46.325Z,96.90
2019-04-25T09:45:20.021Z,95.40
2019-04-25T09:47:50.883Z,95.90
2019-04-25T09:50:38.183Z,94.90
2019-04-25T09:53:07.358Z,95.60
2019-04-25T09:55:41.737Z,93.70
2019-04-25T09:58:16.783Z,94.50
2019-04-25T10:00:50.529Z,90.70
2019-04-25T10:03:19.637Z,85.00
2019-04-25T10:05:48.787Z,83.30
2019-04-25T10:08:19.008Z,81.20
2019-04-25T10:10:48.913Z,81.50
2019-04-25T10:13:18.235Z,81.70
2019-04-25T10:15:54.601Z,78.00
2019-04-25T10:18:24.221Z,82.50
2019-04-25T10:20:54.218Z,77.80
2019-04-25T10:23:24.043Z,74.50
2019-04-25T10:25:54.566Z,77.30
2019-04-25T10:28:24.984Z,75.40
2019-04-25T10:30:55.551Z,78.50
2019-04-25T10:33:26.546Z,77.20
2019-04-25T10:35:59.451Z,77.70
2019-04-25T10:38:28.202Z,72.60
2019-04-25T10:40:57.474Z,72.10
2019-04-25T10:43:26.815Z,73.20
2019-04-25T10:45:56.128Z,70.30
2019-04-25T10:48:25.369Z,72.90
2019-04-25T10:50:55.714Z,71.80
2019-04-25T10:53:25.654Z,71.20
2019-04-25T10:55:55.773Z,69.50
2019-04-25T10:58:25.075Z,67.50
2019-04-25T11:00:56.346Z,68.60
2019-04-25T11:03:33.762Z,63.90
2019-04-25T11:06:03.951Z,63.80
2019-04-25T11:08:34.010Z,64.10
2019-04-25T11:11:03.879Z,65.20
2019-04-25T11:13:33.949Z,64.30
2019-04-25T11:16:24.281Z,64.90
2019-04-25T11:18:57.969Z,67.00
2019-04-25T11:21:27.274Z,60.60
2019-04-25T11:23:56.577Z,64.00
2019-04-25T11:26:26.308Z,63.80
2019-04-25T11:28:56.442Z,62.90
2019-04-25T11:31:27.801Z,67.20
2019-04-25T11:33:56.888Z,63.30
2019-04-25T11:36:27.186Z,66.80
2019-04-25T11:39:14.486Z,62.30
2019-04-25T11:41:46.075Z,62.00
2019-04-25T11:44:14.352Z,62.90
2019-04-25T11:46:45.322Z,62.70
2019-04-25T11:49:15.239Z,61.70
2019-04-25T11:51:45.153Z,59.70
2019-04-25T11:54:15.404Z,59.00
2019-04-25T11:56:45.966Z,58.70
2019-04-25T11:59:15.801Z,57.30
2019-04-25T12:01:46.728Z,56.70
2019-04-25T12:04:16.086Z,56.50
2019-04-25T12:06:47.218Z,56.50
2019-04-25T12:09:16.741Z,55.50
2019-04-25T12:11:47.171Z,56.00
2019-04-25T12:14:17.175Z,54.00
2019-04-25T12:16:50.079Z,52.90
2019-04-25T12:19:17.808Z,53.30
2019-04-25T12:21:48.200Z,52.10
2019-04-25T12:24:17.499Z,51.70
2019-04-25T12:26:47.812Z,52.80
2019-04-25T12:29:17.285Z,53.20
2019-04-25T12:31:47.587Z,53.40
2019-04-25T12:34:16.616Z,52.40
2019-04-25T12:36:45.906Z,52.10
2019-04-25T12:39:15.297Z,52.70
2019-04-25T12:41:46.869Z,53.40
2019-04-25T12:44:33.490Z,51.70
2019-04-25T12:47:10.097Z,51.50
2019-04-25T12:49:39.422Z,52.60
2019-04-25T12:52:08.824Z,52.90
2019-04-25T12:54:37.706Z,52.80
2019-04-25T12:57:06.854Z,52.70
2019-04-25T12:59:35.902Z,53.50
2019-04-25T13:02:05.004Z,53.10
2019-04-25T13:04:34.988Z,52.90
2019-04-25T13:07:05.342Z,54.80
2019-04-25T13:09:34.759Z,54.60
2019-04-25T13:12:05.947Z,52.60
2019-04-25T13:14:34.977Z,52.90
2019-04-25T13:17:08.032Z,53.20
2019-04-25T13:19:35.443Z,53.80
2019-04-25T13:22:05.437Z,57.20
2019-04-25T13:24:34.441Z,54.80
2019-04-25T13:27:14.990Z,54.10
2019-04-25T13:30:03.133Z,52.40
2019-04-25T13:32:43.729Z,53.40
2019-04-25T13:35:14.505Z,51.90
2019-04-25T13:37:44.023Z,51.80
2019-04-25T13:40:16.217Z,53.20
2019-04-25T13:42:44.417Z,53.40
2019-04-25T13:45:14.919Z,54.20
2019-04-25T13:47:44.004Z,52.10
2019-04-25T13:50:14.609Z,51.90
2019-04-25T13:52:44.050Z,52.20
2019-04-25T13:55:13.691Z,53.70
2019-04-25T13:57:43.338Z,53.50
2019-04-25T14:00:14.133Z,53.20
2019-04-25T14:02:43.349Z,53.90
2019-04-25T14:05:14.715Z,53.30
2019-04-25T14:07:44.666Z,52.50
2019-04-25T14:10:15.071Z,51.00
2019-04-25T14:12:44.370Z,52.80
2019-04-25T14:15:15.923Z,51.80
2019-04-25T14:17:46.861Z,51.90
2019-04-25T14:20:28.016Z,52.80
2019-04-25T14:22:57.448Z,52.00
2019-04-25T14:25:27.645Z,51.90
2019-04-25T14:27:57.853Z,53.50
2019-04-25T14:30:28.755Z,54.80
2019-04-25T14:32:57.838Z,57.40
2019-04-25T14:35:29.018Z,58.10
2019-04-25T14:37:58.365Z,59.30
2019-04-25T14:40:27.574Z,60.80
2019-04-25T14:42:56.857Z,60.10
2019-04-25T14:45:26.616Z,59.40
2019-04-25T14:47:56.074Z,59.50
2019-04-25T14:50:25.571Z,59.60
2019-04-25T14:52:54.894Z,59.50
2019-04-25T14:55:25.814Z,60.80
2019-04-25T14:57:55.365Z,60.70
2019-04-25T15:03:03.438Z,61.70
2019-04-25T15:05:32.669Z,62.80
2019-04-25T15:08:01.936Z,65.00
2019-04-25T15:10:31.242Z,63.10
2019-04-25T15:13:00.345Z,64.90
2019-04-25T15:15:29.430Z,63.60
2019-04-25T15:17:58.545Z,64.90
2019-04-25T15:20:28.112Z,67.40
2019-04-25T15:22:57.202Z,70.50
2019-04-25T15:25:26.251Z,72.60
2019-04-25T15:27:55.317Z,74.50
2019-04-25T15:30:29.446Z,75.10
2019-04-25T15:32:58.620Z,75.40
2019-04-25T15:35:35.297Z,79.00
2019-04-25T15:38:11.761Z,82.80
2019-04-25T15:40:42.496Z,86.90
2019-04-25T15:43:26.318Z,88.10
2019-04-25T15:45:57.274Z,90.00
2019-04-25T15:48:27.299Z,92.70
2019-04-25T15:50:56.691Z,93.10
2019-04-25T15:53:25.991Z,92.60
2019-04-25T15:55:55.091Z,92.60
2019-04-25T15:58:25.303Z,93.30
2019-04-25T16:00:55.325Z,94.50
2019-04-25T16:03:24.417Z,95.00
2019-04-25T16:05:53.414Z,93.90
2019-04-25T16:08:22.348Z,94.70
2019-04-25T16:10:51.738Z,94.70
2019-04-25T16:13:20.796Z,96.30
2019-04-25T16:15:49.891Z,96.00
2019-04-25T16:18:19.400Z,97.20
2019-04-25T16:20:48.681Z,96.50
2019-04-25T16:23:18.409Z,96.40
2019-04-25T16:25:47.296Z,97.10
2019-04-25T16:28:16.601Z,96.80
2019-04-25T16:30:46.252Z,97.20
2019-04-25T16:33:15.404Z,96.70
2019-04-25T16:35:44.496Z,96.90
2019-04-25T16:38:15.099Z,96.10
2019-04-25T16:40:44.117Z,96.00
2019-04-25T16:43:14.851Z,96.10
2019-04-25T16:45:44.157Z,95.60
2019-04-25T16:48:13.662Z,95.10
2019-04-25T16:50:42.749Z,96.40
2019-04-25T16:53:12.197Z,96.30
2019-04-25T16:55:41.449Z,97.20
2019-04-25T16:58:11.057Z,97.40
2019-04-25T17:00:44.504Z,98.10
2019-04-25T17:03:15.494Z,99.20
2019-04-25T17:05:44.715Z,99.60
2019-04-25T17:08:14.033Z,99.10
2019-04-25T17:10:43.292Z,99.40
2019-04-25T17:13:12.794Z,99.90
2019-04-25T17:16:01.402Z,99.90
2019-04-25T17:18:38.255Z,99.90
2019-04-25T17:21:11.516Z,99.90
2019-04-25T17:23:39.895Z,99.90
2019-04-25T17:26:09.583Z,99.90
2019-04-25T17:28:41.297Z,99.90
2019-04-25T17:31:11.891Z,99.70
2019-04-25T17:33:42.596Z,99.50
2019-04-25T17:36:13.359Z,99.90
2019-04-25T17:38:46.750Z,99.90
2019-04-25T17:41:15.848Z,99.90
2019-04-25T17:43:45.580Z,99.90
2019-04-25T17:46:17.066Z,99.90
2019-04-25T17:48:46.990Z,99.90
2019-04-25T17:51:16.950Z,99.90
2019-04-25T17:53:47.310Z,99.90
2019-04-25T17:56:17.871Z,99.90
2019-04-25T17:58:49.506Z,99.90
2019-04-25T18:01:22.037Z,99.90
2019-04-25T18:03:51.785Z,99.90
2019-04-25T18:06:22.094Z,99.90
2019-04-25T18:08:52.741Z,99.90
2019-04-25T18:11:22.663Z,99.90
2019-04-25T18:13:52.774Z,99.90
2019-04-25T18:16:24.098Z,99.90
2019-04-25T18:18:58.410Z,99.90
2019-04-25T18:21:28.450Z,99.90
2019-04-25T18:24:12.288Z,99.90
2019-04-25T18:26:46.858Z,99.90
2019-04-25T18:29:18.301Z,99.90
2019-04-25T18:31:51.281Z,99.90
2019-04-25T18:34:23.978Z,99.90
2019-04-25T18:37:04.615Z,99.90
2019-04-25T18:39:42.384Z,99.90
2019-04-25T18:42:12.970Z,99.90
2019-04-25T18:44:42.271Z,99.90
2019-04-25T18:47:11.198Z,99.90
2019-04-25T18:49:42.501Z,99.90
2019-04-25T18:52:30.276Z,99.90
2019-04-25T18:55:09.982Z,99.90
2019-04-25T18:57:47.290Z,99.90
2019-04-25T19:00:34.592Z,99.90
2019-04-25T19:03:05.137Z,99.90
2019-04-25T19:05:54.080Z,99.90
2019-04-25T19:08:23.180Z,99.90
2019-04-25T19:10:52.933Z,99.90
2019-04-25T19:13:21.867Z,99.90
2019-04-25T19:15:51.492Z,99.90
2019-04-25T19:18:20.783Z,99.90
2019-04-25T19:20:49.881Z,99.90
2019-04-25T19:23:19.184Z,99.90
2019-04-25T19:25:48.277Z,99.90
2019-04-25T19:28:17.167Z,99.90
2019-04-25T19:30:47.139Z,99.90
2019-04-25T19:33:16.490Z,99.90
2019-04-25T19:35:45.727Z,99.90
2019-04-25T19:38:14.975Z,99.90
2019-04-25T19:40:46.007Z,99.90
2019-04-25T19:43:33.872Z,99.90
2019-04-25T19:46:02.948Z,99.90
2019-04-25T19:48:33.067Z,99.90
2019-04-25T19:51:02.575Z,99.90
2019-04-25T19:53:31.674Z,99.90
2019-04-25T19:56:00.757Z,99.90
2019-04-25T19:58:29.901Z,99.90
2019-04-25T20:00:59.097Z,99.90
2019-04-25T20:03:29.885Z,99.90
2019-04-25T20:06:00.382Z,99.90
2019-04-25T20:08:38.150Z,99.90
2019-04-25T20:11:08.847Z,99.90
2019-04-25T20:13:39.212Z,99.90
2019-04-25T20:16:08.271Z,99.90
2019-04-25T20:18:38.313Z,99.90
2019-04-25T20:21:07.478Z,99.90
2019-04-25T20:23:36.570Z,99.90
2019-04-25T20:26:05.664Z,99.90
2019-04-25T20:28:34.759Z,99.90
2019-04-25T20:31:04.062Z,99.90
2019-04-25T20:33:33.153Z,99.90
2019-04-25T20:36:03.285Z,99.90
2019-04-25T20:38:33.391Z,99.90
2019-04-25T20:41:02.906Z,99.90
2019-04-25T20:43:31.995Z,99.90
2019-04-25T20:46:01.302Z,99.90
2019-04-25T20:48:31.207Z,99.90
2019-04-25T20:51:00.269Z,99.90
2019-04-25T20:53:29.190Z,99.90
2019-04-25T20:55:58.291Z,99.90
2019-04-25T20:58:27.379Z,99.90
2019-04-25T21:00:58.028Z,99.90
2019-04-25T21:03:27.208Z,99.90
2019-04-25T21:06:22.925Z,99.90
2019-04-25T21:08:52.021Z,99.90
2019-04-25T21:11:21.119Z,99.90
2019-04-25T21:14:03.527Z,99.90
2019-04-25T21:16:51.835Z,99.90
2019-04-25T21:19:32.229Z,99.90
2019-04-25T21:22:01.198Z,99.90
2019-04-25T21:24:30.212Z,99.90
2019-04-25T21:26:59.308Z,99.90
2019-04-25T21:29:28.608Z,99.90
2019-04-25T21:31:58.782Z,99.90
2019-04-25T21:34:31.856Z,99.90
2019-04-25T21:36:59.665Z,99.90
2019-04-25T21:39:30.924Z,99.90
2019-04-25T21:42:10.670Z,99.90
2019-04-25T21:44:40.790Z,99.90
2019-04-25T21:47:09.883Z,99.90
2019-04-25T21:49:39.287Z,99.90
2019-04-25T21:52:08.193Z,99.90
2019-04-25T21:54:37.579Z,99.90
2019-04-25T21:57:07.082Z,99.90
2019-04-25T21:59:36.084Z,99.90
2019-04-25T22:02:06.302Z,99.90
2019-04-25T22:04:40.364Z,99.90
2019-04-25T22:07:06.638Z,99.90
2019-04-25T22:09:36.240Z,99.90
2019-04-25T22:12:08.343Z,99.90
2019-04-25T22:14:37.506Z,99.90
2019-04-25T22:17:07.212Z,99.90
2019-04-25T22:19:36.922Z,99.90
2019-04-25T22:22:06.842Z,99.90
2019-04-25T22:24:36.134Z,99.90
2019-04-25T22:27:07.392Z,99.90
2019-04-25T22:29:38.234Z,99.90
2019-04-25T22:32:15.301Z,99.90
2019-04-25T22:34:52.817Z,99.90
2019-04-25T22:37:22.299Z,99.90
2019-04-25T22:39:51.390Z,99.90
2019-04-25T22:42:20.380Z,99.90
2019-04-25T22:44:49.589Z,99.90
2019-04-25T22:47:18.684Z,99.90
2019-04-25T22:49:47.768Z,99.90
2019-04-25T22:52:17.276Z,99.90
2019-04-25T22:54:46.371Z,99.90
2019-04-25T22:57:15.875Z,99.90
2019-04-25T22:59:45.379Z,99.90
2019-04-25T23:02:15.904Z,99.90
2019-04-25T23:04:47.047Z,99.90
2019-04-25T23:07:16.453Z,99.90
2019-04-25T23:09:46.367Z,99.90
2019-04-25T23:12:15.562Z,99.90
2019-04-25T23:14:44.658Z,99.90
2019-04-25T23:17:13.751Z,99.90
2019-04-25T23:19:43.056Z,99.90
2019-04-25T23:22:12.148Z,99.90
2019-04-25T23:24:54.757Z,99.90
2019-04-25T23:27:41.669Z,99.90
2019-04-25T23:30:12.813Z,99.90
2019-04-25T23:32:41.911Z,99.90
2019-04-25T23:35:23.499Z,99.90
2019-04-25T23:37:41.531Z,99.90
2019-04-25T23:40:11.630Z,99.90
2019-04-25T23:42:40.949Z,99.90
2019-04-25T23:45:10.453Z,99.90
2019-04-25T23:47:39.548Z,99.90
2019-04-25T23:50:09.160Z,99.90
2019-04-25T23:52:38.556Z,99.90
2019-04-25T23:55:09.409Z,99.90
2019-04-25T23:57:38.589Z,99.90
